Edgefield, South Carolina
Current Conditions -  °F | °C
As of 8:35 AM on Friday 19 Dec 2014 (Local Time) from KAIK Reporting Station
Clear Clear  
Wind Chill: 41°   Ceiling: Unl
Heat Index: 41°   Visibility: 10mi
Dew Point: 39°   Wind: 0mph
Humidity: 93%   Direction: NA
Pressure: 30.17"   Gusts: NA
Location:  33.79°N, 81.93°W
Report Text: KAIK 191335Z AUTO 00000KT 10SM CLR 05/04 A3017 RMK AO2 PNO
Loading
Personal Weather Stations






























Interactive Weather Map New forecast layout! Learn more

10-Day Weather Forecast

Advertisements
Track Severe Weather on mobile